Time;durP1;ratioP1;P1;durP2;ratioP2;P2;SDS_P1;SDS_P2;PMS_P1;PMS_P2;Temp;Humidity;BMP_temperature;BMP_pressure;BME280_temperature;BME280_humidity;BME280_pressure;Samples;Min_cycle;Max_cycle;Signal;HPM_P1;HPM_P2
2023/09/01 00:01:03;;;;;;;56.60;2.73;;;;;;;;;;5073703;28;20935;-69
2023/09/01 00:03:31;;;;;;;56.50;2.40;;;;;;;;;;5073552;28;20545;-69
2023/09/01 00:06:02;;;;;;;56.47;2.30;;;;;;;;;;5073799;28;20466;-69
2023/09/01 00:08:29;;;;;;;56.60;2.20;;;;;;;;;;5072741;28;20997;-70
2023/09/01 00:10:56;;;;;;;56.90;2.50;;;;;;;;;;5073903;28;20444;-68
2023/09/01 00:13:23;;;;;;;56.40;2.40;;;;;;;;;;5073389;28;20458;-69
2023/09/01 00:15:50;;;;;;;56.40;2.30;;;;;;;;;;5073261;28;20475;-69
2023/09/01 00:18:17;;;;;;;56.47;2.43;;;;;;;;;;5073320;28;20485;-68
2023/09/01 00:20:46;;;;;;;56.67;2.47;;;;;;;;;;5073692;28;20449;-69
2023/09/01 00:23:13;;;;;;;56.37;2.40;;;;;;;;;;5073471;28;20920;-68
2023/09/01 00:25:40;;;;;;;56.40;2.50;;;;;;;;;;5073393;28;20466;-69
2023/09/01 00:28:08;;;;;;;56.17;2.07;;;;;;;;;;5073207;28;20452;-69
2023/09/01 00:30:51;;;;;;;56.47;2.63;;;;;;;;;;5073206;28;20446;-68
2023/09/01 00:33:18;;;;;;;56.23;2.30;;;;;;;;;;5073127;28;20447;-69
2023/09/01 00:35:46;;;;;;;56.40;2.40;;;;;;;;;;5073252;28;20466;-68
2023/09/01 00:38:14;;;;;;;56.40;2.30;;;;;;;;;;5072919;28;20495;-69
2023/09/01 00:40:41;;;;;;;57.23;2.30;;;;;;;;;;5073306;28;20450;-68
2023/09/01 00:43:08;;;;;;;56.30;2.20;;;;;;;;;;5072918;28;20818;-69
2023/09/01 00:45:37;;;;;;;56.30;2.40;;;;;;;;;;5072682;28;20561;-67
2023/09/01 00:48:05;;;;;;;56.40;2.60;;;;;;;;;;5073325;28;20435;-68
2023/09/01 00:50:32;;;;;;;56.37;2.40;;;;;;;;;;5073085;28;20439;-69
2023/09/01 00:53:02;;;;;;;56.30;2.30;;;;;;;;;;5072605;28;20943;-68
2023/09/01 00:55:30;;;;;;;56.30;2.23;;;;;;;;;;5072800;28;20467;-68
2023/09/01 00:57:57;;;;;;;56.17;2.43;;;;;;;;;;5072739;28;20487;-69
2023/09/01 01:00:24;;;;;;;56.27;2.30;;;;;;;;;;5072532;28;20970;-67
2023/09/01 01:02:51;;;;;;;56.70;2.60;;;;;;;;;;5072754;28;20440;-69
2023/09/01 01:05:23;;;;;;;56.30;2.30;;;;;;;;;;5072580;28;20470;-71
2023/09/01 01:07:54;;;;;;;56.30;2.07;;;;;;;;;;5072646;28;20772;-68
2023/09/01 01:10:26;;;;;;;56.10;2.30;;;;;;;;;;5072366;28;20542;-69
2023/09/01 01:12:57;;;;;;;56.50;2.30;;;;;;;;;;5072211;28;20614;-69
2023/09/01 01:15:26;;;;;;;56.77;2.97;;;;;;;;;;5072334;28;20455;-68
2023/09/01 01:17:56;;;;;;;56.30;2.40;;;;;;;;;;5071966;28;20490;-68
2023/09/01 01:20:29;;;;;;;56.70;2.90;;;;;;;;;;5072654;28;20444;-68
2023/09/01 01:23:09;;;;;;;56.47;2.60;;;;;;;;;;5071852;28;20778;-68
2023/09/01 01:25:36;;;;;;;56.43;2.40;;;;;;;;;;5072266;28;21095;-68
2023/09/01 01:28:07;;;;;;;56.20;2.20;;;;;;;;;;5072248;28;20446;-69
2023/09/01 01:30:34;;;;;;;56.50;2.10;;;;;;;;;;5072032;28;20534;-69
2023/09/01 01:33:01;;;;;;;56.60;2.20;;;;;;;;;;5071683;28;20447;-69
2023/09/01 01:35:31;;;;;;;56.60;2.77;;;;;;;;;;5071737;28;20459;-69
2023/09/01 01:38:00;;;;;;;56.47;2.40;;;;;;;;;;5071763;28;21003;-69
2023/09/01 01:40:30;;;;;;;56.40;2.27;;;;;;;;;;5071950;28;20897;-69
2023/09/01 01:42:58;;;;;;;56.50;2.57;;;;;;;;;;5069778;28;20704;-69
2023/09/01 01:45:25;;;;;;;56.50;2.40;;;;;;;;;;5071426;28;20979;-69
2023/09/01 01:47:53;;;;;;;56.60;2.80;;;;;;;;;;5071663;28;20443;-69
2023/09/01 01:50:20;;;;;;;56.23;2.13;;;;;;;;;;5071773;28;20561;-69
2023/09/01 01:52:47;;;;;;;56.30;2.30;;;;;;;;;;5071436;28;20748;-68
2023/09/01 01:55:14;;;;;;;56.40;2.40;;;;;;;;;;5071515;28;20851;-68
2023/09/01 01:57:43;;;;;;;56.20;2.17;;;;;;;;;;5071928;28;20483;-69
2023/09/01 02:00:14;;;;;;;56.23;2.30;;;;;;;;;;5071757;28;20473;-69
2023/09/01 02:02:42;;;;;;;56.37;2.10;;;;;;;;;;5071211;28;21119;-68
2023/09/01 02:05:10;;;;;;;56.30;2.20;;;;;;;;;;5071359;28;20847;-68
2023/09/01 02:07:37;;;;;;;56.30;2.30;;;;;;;;;;5071977;28;20440;-66
2023/09/01 02:10:06;;;;;;;56.30;2.20;;;;;;;;;;5071157;28;20453;-68
2023/09/01 02:12:33;;;;;;;56.63;2.70;;;;;;;;;;5071164;28;20796;-67
2023/09/01 02:15:03;;;;;;;56.17;2.17;;;;;;;;;;5071212;28;20459;-69
2023/09/01 02:17:30;;;;;;;56.17;2.30;;;;;;;;;;5071079;28;20830;-70
2023/09/01 02:19:57;;;;;;;56.23;2.13;;;;;;;;;;5071359;28;20443;-68
2023/09/01 02:22:24;;;;;;;56.30;2.20;;;;;;;;;;5070800;28;20814;-70
2023/09/01 02:24:51;;;;;;;56.80;2.87;;;;;;;;;;5071186;28;20462;-69
2023/09/01 02:27:18;;;;;;;56.50;2.10;;;;;;;;;;5070881;28;20451;-70
2023/09/01 02:29:45;;;;;;;56.27;2.20;;;;;;;;;;5070574;28;20439;-69
2023/09/01 02:32:14;;;;;;;56.17;2.10;;;;;;;;;;5070600;28;20951;-69
2023/09/01 02:34:41;;;;;;;56.20;2.10;;;;;;;;;;5071447;28;20470;-69
2023/09/01 02:37:08;;;;;;;56.47;2.10;;;;;;;;;;5070753;28;20576;-68
2023/09/01 02:39:35;;;;;;;56.37;2.10;;;;;;;;;;5070759;28;21021;-69
2023/09/01 02:42:04;;;;;;;56.33;2.40;;;;;;;;;;5070718;28;20449;-68
2023/09/01 02:44:31;;;;;;;56.30;2.00;;;;;;;;;;5070908;28;20506;-69
2023/09/01 02:46:58;;;;;;;56.30;2.20;;;;;;;;;;5070798;28;20823;-69
2023/09/01 02:49:27;;;;;;;56.47;2.50;;;;;;;;;;5070902;28;20443;-69
2023/09/01 02:51:54;;;;;;;56.70;2.97;;;;;;;;;;5070976;28;20444;-68
2023/09/01 02:54:21;;;;;;;56.37;2.23;;;;;;;;;;5070899;28;20463;-71
2023/09/01 02:56:48;;;;;;;56.23;2.27;;;;;;;;;;5070629;28;20439;-69
2023/09/01 02:59:15;;;;;;;56.30;2.27;;;;;;;;;;5070713;28;21048;-71
2023/09/01 03:01:43;;;;;;;56.37;2.40;;;;;;;;;;5070469;28;20465;-68
2023/09/01 03:04:10;;;;;;;56.27;2.20;;;;;;;;;;5070454;28;20452;-69
2023/09/01 03:06:39;;;;;;;56.20;2.60;;;;;;;;;;5070670;28;20447;-69
2023/09/01 03:09:09;;;;;;;56.43;2.27;;;;;;;;;;5070918;28;20442;-69
2023/09/01 03:11:36;;;;;;;56.47;2.67;;;;;;;;;;5070623;28;20443;-72
2023/09/01 03:14:04;;;;;;;56.07;2.03;;;;;;;;;;5070416;28;20450;-71
2023/09/01 03:16:31;;;;;;;56.50;2.30;;;;;;;;;;5070355;28;20447;-68
2023/09/01 03:18:59;;;;;;;56.20;2.10;;;;;;;;;;5070716;28;20855;-68
2023/09/01 03:21:30;;;;;;;56.37;2.23;;;;;;;;;;5070715;28;20439;-68
2023/09/01 03:23:59;;;;;;;56.33;2.13;;;;;;;;;;5070441;28;20443;-69
2023/09/01 03:26:26;;;;;;;58.07;2.00;;;;;;;;;;5070219;28;20452;-71
2023/09/01 03:28:53;;;;;;;56.23;2.20;;;;;;;;;;5070325;28;20431;-69
2023/09/01 03:31:21;;;;;;;56.73;2.97;;;;;;;;;;5070426;28;20445;-70
2023/09/01 03:33:48;;;;;;;56.10;2.13;;;;;;;;;;5070064;28;20451;-69
2023/09/01 03:36:15;;;;;;;56.27;2.03;;;;;;;;;;5070061;28;20470;-70
2023/09/01 03:38:42;;;;;;;56.20;2.00;;;;;;;;;;5070436;28;20479;-70
2023/09/01 03:41:11;;;;;;;56.53;2.60;;;;;;;;;;5070994;28;20508;-69
2023/09/01 03:43:38;;;;;;;56.23;2.20;;;;;;;;;;5073762;28;20564;-69
2023/09/01 03:46:05;;;;;;;56.20;2.10;;;;;;;;;;5074150;28;20463;-69
2023/09/01 03:48:35;;;;;;;56.07;2.20;;;;;;;;;;5073996;28;20449;-69
2023/09/01 03:51:08;;;;;;;56.27;2.20;;;;;;;;;;5074065;28;20455;-69
2023/09/01 03:53:36;;;;;;;56.03;1.93;;;;;;;;;;5073721;28;20820;-69
2023/09/01 03:56:07;;;;;;;57.17;2.40;;;;;;;;;;5073571;28;20470;-69
2023/09/01 03:58:36;;;;;;;56.00;2.10;;;;;;;;;;5073845;28;20483;-68
2023/09/01 04:01:05;;;;;;;56.03;2.00;;;;;;;;;;5073718;28;20450;-68
2023/09/01 04:03:33;;;;;;;57.53;2.97;;;;;;;;;;5073555;28;20443;-69
2023/09/01 04:06:00;;;;;;;55.93;2.07;;;;;;;;;;5073500;28;20839;-68
2023/09/01 04:08:27;;;;;;;56.20;2.13;;;;;;;;;;5073665;28;20457;-71
2023/09/01 04:10:54;;;;;;;56.37;2.53;;;;;;;;;;5073608;28;20454;-68
2023/09/01 04:13:21;;;;;;;55.90;2.13;;;;;;;;;;5073627;28;20447;-69
2023/09/01 04:15:50;;;;;;;56.37;2.40;;;;;;;;;;5073488;28;20951;-69
2023/09/01 04:18:17;;;;;;;56.20;2.03;;;;;;;;;;5073737;28;20489;-69
2023/09/01 04:20:48;;;;;;;56.30;2.40;;;;;;;;;;5073656;28;20454;-69
2023/09/01 04:23:15;;;;;;;56.70;2.77;;;;;;;;;;5073084;28;20447;-68
2023/09/01 04:25:42;;;;;;;56.17;2.43;;;;;;;;;;5073579;28;20493;-68
2023/09/01 04:28:09;;;;;;;56.40;2.10;;;;;;;;;;5073441;28;20455;-68
2023/09/01 04:30:37;;;;;;;55.87;2.27;;;;;;;;;;5073297;28;20940;-70
2023/09/01 04:33:07;;;;;;;56.17;2.13;;;;;;;;;;5072914;28;20549;-68
2023/09/01 04:35:34;;;;;;;56.17;2.37;;;;;;;;;;5073220;28;20466;-69
2023/09/01 04:38:02;;;;;;;57.97;2.60;;;;;;;;;;5072987;28;20465;-68
2023/09/01 04:40:30;;;;;;;56.27;2.73;;;;;;;;;;5072904;28;20488;-69
2023/09/01 04:42:57;;;;;;;55.97;2.00;;;;;;;;;;5072913;28;20508;-71
2023/09/01 04:45:24;;;;;;;55.83;1.93;;;;;;;;;;5072949;28;20469;-70
2023/09/01 04:47:51;;;;;;;56.20;2.13;;;;;;;;;;5073392;28;20454;-67
2023/09/01 04:50:20;;;;;;;56.10;1.80;;;;;;;;;;5072911;28;20530;-68
2023/09/01 04:52:47;;;;;;;55.97;1.77;;;;;;;;;;5072036;28;20477;-68
2023/09/01 04:55:14;;;;;;;56.27;2.07;;;;;;;;;;5072779;28;20494;-68
2023/09/01 04:57:41;;;;;;;56.17;1.90;;;;;;;;;;5072876;28;20451;-68
2023/09/01 05:00:15;;;;;;;56.10;1.93;;;;;;;;;;5072643;28;20835;-69
2023/09/01 05:02:43;;;;;;;56.10;1.90;;;;;;;;;;5072290;28;20962;-69
2023/09/01 05:05:10;;;;;;;58.23;3.10;;;;;;;;;;5072437;28;20467;-69
2023/09/01 05:07:39;;;;;;;56.07;2.27;;;;;;;;;;5072391;28;20447;-67
2023/09/01 05:10:06;;;;;;;56.30;2.10;;;;;;;;;;5072553;28;20450;-67
2023/09/01 05:12:34;;;;;;;56.20;2.20;;;;;;;;;;5072279;28;20450;-68
2023/09/01 05:15:01;;;;;;;56.27;2.43;;;;;;;;;;5072394;28;20477;-68
2023/09/01 05:17:28;;;;;;;56.90;2.63;;;;;;;;;;5072203;28;20459;-70
2023/09/01 05:19:56;;;;;;;56.07;2.10;;;;;;;;;;5072289;28;20479;-69
2023/09/01 05:22:23;;;;;;;56.10;2.00;;;;;;;;;;5072100;28;20444;-70
2023/09/01 05:24:53;;;;;;;56.00;2.00;;;;;;;;;;5072189;28;20473;-68
2023/09/01 05:27:20;;;;;;;56.07;2.00;;;;;;;;;;5072279;28;20534;-68
2023/09/01 05:29:47;;;;;;;56.07;2.00;;;;;;;;;;5072090;28;20534;-69
2023/09/01 05:32:15;;;;;;;56.40;2.40;;;;;;;;;;5071956;28;20451;-68
2023/09/01 05:34:42;;;;;;;56.27;2.30;;;;;;;;;;5072169;28;20466;-68
2023/09/01 05:37:11;;;;;;;57.10;2.13;;;;;;;;;;5071908;28;20474;-68
2023/09/01 05:39:38;;;;;;;56.27;2.00;;;;;;;;;;5071816;28;21025;-69
2023/09/01 05:42:07;;;;;;;56.30;2.00;;;;;;;;;;5071614;28;20440;-69
2023/09/01 05:44:34;;;;;;;56.80;2.40;;;;;;;;;;5071812;28;20471;-68
2023/09/01 05:47:02;;;;;;;56.37;2.30;;;;;;;;;;5071869;28;20827;-69
2023/09/01 05:49:29;;;;;;;56.37;2.10;;;;;;;;;;5071947;28;20834;-70
2023/09/01 05:51:56;;;;;;;56.70;2.53;;;;;;;;;;5071597;28;20542;-68
2023/09/01 05:54:24;;;;;;;56.07;2.20;;;;;;;;;;5071655;28;20472;-68
2023/09/01 05:56:51;;;;;;;56.40;2.07;;;;;;;;;;5071439;28;20827;-67
2023/09/01 05:59:19;;;;;;;56.60;2.40;;;;;;;;;;5071758;28;20854;-67
2023/09/01 06:01:46;;;;;;;56.37;2.00;;;;;;;;;;5071266;28;20453;-68
2023/09/01 06:04:14;;;;;;;56.37;2.10;;;;;;;;;;5071494;28;20493;-67
2023/09/01 06:06:41;;;;;;;56.47;2.30;;;;;;;;;;5070883;28;20440;-67
2023/09/01 06:09:08;;;;;;;56.37;2.10;;;;;;;;;;5071390;28;20895;-68
2023/09/01 06:11:36;;;;;;;56.27;2.10;;;;;;;;;;5071090;28;20450;-68
2023/09/01 06:14:04;;;;;;;56.47;2.50;;;;;;;;;;5071412;28;20448;-67
2023/09/01 06:16:32;;;;;;;56.37;2.27;;;;;;;;;;5071469;28;20443;-67
2023/09/01 06:19:00;;;;;;;56.37;2.10;;;;;;;;;;5071293;28;20491;-67
2023/09/01 06:21:28;;;;;;;56.10;2.40;;;;;;;;;;5071331;28;20443;-67
2023/09/01 06:23:55;;;;;;;56.13;2.00;;;;;;;;;;5071126;28;20443;-68
2023/09/01 06:26:22;;;;;;;56.37;2.20;;;;;;;;;;5071501;28;20455;-66
2023/09/01 06:28:49;;;;;;;56.47;2.30;;;;;;;;;;5071091;28;20932;-67
2023/09/01 06:31:17;;;;;;;56.40;2.40;;;;;;;;;;5071236;28;20443;-66
2023/09/01 06:33:46;;;;;;;63.60;2.40;;;;;;;;;;5071068;28;20439;-68
2023/09/01 06:36:14;;;;;;;56.17;2.10;;;;;;;;;;5070863;28;21010;-67
2023/09/01 06:38:41;;;;;;;56.40;2.30;;;;;;;;;;5070934;28;20457;-66
2023/09/01 06:41:08;;;;;;;56.50;2.70;;;;;;;;;;5071223;28;20446;-66
2023/09/01 06:43:35;;;;;;;56.20;2.20;;;;;;;;;;5070937;28;20460;-66
2023/09/01 06:46:02;;;;;;;56.30;2.30;;;;;;;;;;5070990;28;20476;-66
2023/09/01 06:48:30;;;;;;;56.47;2.50;;;;;;;;;;5071091;28;20443;-67
2023/09/01 06:51:00;;;;;;;56.20;2.20;;;;;;;;;;5071536;28;20928;-67
2023/09/01 06:53:27;;;;;;;56.73;2.83;;;;;;;;;;5070460;28;20450;-67
2023/09/01 06:55:54;;;;;;;56.50;2.20;;;;;;;;;;5071133;28;20967;-66
2023/09/01 06:58:21;;;;;;;56.50;2.67;;;;;;;;;;5070956;28;20451;-67
2023/09/01 07:00:51;;;;;;;56.17;2.20;;;;;;;;;;5070781;28;20487;-66
2023/09/01 07:03:18;;;;;;;56.17;2.20;;;;;;;;;;5070923;28;20789;-66
2023/09/01 07:05:53;;;;;;;56.50;2.40;;;;;;;;;;5070469;28;20459;-67
2023/09/01 07:08:22;;;;;;;56.23;2.40;;;;;;;;;;5071104;28;20434;-66
2023/09/01 07:10:49;;;;;;;56.27;2.30;;;;;;;;;;5070852;28;20823;-67
2023/09/01 07:13:16;;;;;;;56.47;2.30;;;;;;;;;;5070610;28;20454;-67
2023/09/01 07:15:48;;;;;;;57.20;2.53;;;;;;;;;;5070552;28;20471;-66
2023/09/01 07:18:15;;;;;;;56.27;2.33;;;;;;;;;;5074827;28;20447;-66
2023/09/01 07:20:42;;;;;;;56.07;2.10;;;;;;;;;;5074839;28;20489;-67
2023/09/01 07:23:09;;;;;;;56.17;2.10;;;;;;;;;;5074418;28;20454;-66
2023/09/01 07:25:38;;;;;;;56.47;2.50;;;;;;;;;;5074293;28;21011;-68
2023/09/01 07:28:06;;;;;;;56.27;2.20;;;;;;;;;;5074463;28;20443;-68
2023/09/01 07:30:33;;;;;;;56.27;2.40;;;;;;;;;;5074385;28;20881;-68
2023/09/01 07:33:00;;;;;;;56.40;2.00;;;;;;;;;;5074147;28;20526;-69
2023/09/01 07:35:27;;;;;;;56.17;2.30;;;;;;;;;;5074403;28;20847;-68
2023/09/01 07:37:55;;;;;;;56.17;2.10;;;;;;;;;;5074200;28;20939;-69
2023/09/01 07:40:22;;;;;;;56.20;2.10;;;;;;;;;;5074436;28;20574;-69
2023/09/01 07:42:51;;;;;;;56.13;2.00;;;;;;;;;;5073922;28;20939;-69
2023/09/01 07:45:18;;;;;;;56.60;2.10;;;;;;;;;;5073841;28;20473;-68
2023/09/01 07:47:45;;;;;;;56.30;2.30;;;;;;;;;;5074546;28;20443;-69
2023/09/01 07:50:12;;;;;;;56.17;2.30;;;;;;;;;;5074064;28;20908;-68
2023/09/01 07:52:39;;;;;;;56.20;2.40;;;;;;;;;;5073897;28;20449;-69
2023/09/01 07:55:07;;;;;;;56.30;2.20;;;;;;;;;;5074088;28;20463;-69
2023/09/01 07:57:34;;;;;;;56.20;2.10;;;;;;;;;;5073874;28;20435;-69
2023/09/01 08:00:07;;;;;;;55.97;2.10;;;;;;;;;;5073725;28;20482;-69
2023/09/01 08:02:34;;;;;;;56.17;2.30;;;;;;;;;;5073831;28;20498;-69
2023/09/01 08:05:03;;;;;;;56.23;2.10;;;;;;;;;;5074006;28;20843;-69
2023/09/01 08:07:30;;;;;;;56.27;2.30;;;;;;;;;;5073666;28;20500;-69
2023/09/01 08:09:57;;;;;;;56.20;2.30;;;;;;;;;;5073776;28;20530;-70
2023/09/01 08:12:24;;;;;;;55.97;2.20;;;;;;;;;;5073374;28;20443;-69
2023/09/01 08:14:51;;;;;;;56.10;2.20;;;;;;;;;;5073544;28;20483;-69
2023/09/01 08:17:20;;;;;;;56.17;2.20;;;;;;;;;;5073670;28;20816;-68
2023/09/01 08:19:47;;;;;;;58.77;3.83;;;;;;;;;;5073751;28;20481;-68
2023/09/01 08:22:15;;;;;;;56.07;2.17;;;;;;;;;;5073704;28;20444;-68
2023/09/01 08:24:42;;;;;;;56.17;2.20;;;;;;;;;;5073319;28;20469;-69
2023/09/01 08:27:09;;;;;;;56.40;2.20;;;;;;;;;;5073269;28;20455;-69
2023/09/01 08:29:37;;;;;;;56.40;2.20;;;;;;;;;;5072741;28;20853;-69
2023/09/01 08:32:05;;;;;;;56.80;2.70;;;;;;;;;;5073288;28;20497;-68
2023/09/01 08:34:33;;;;;;;55.97;2.27;;;;;;;;;;5073429;28;21041;-69
2023/09/01 08:37:01;;;;;;;56.40;2.23;;;;;;;;;;5073317;28;20459;-68
2023/09/01 08:39:28;;;;;;;56.13;2.00;;;;;;;;;;5073060;28;20454;-70
2023/09/01 08:41:55;;;;;;;56.37;2.10;;;;;;;;;;5073083;28;20443;-68
2023/09/01 08:44:24;;;;;;;56.20;2.10;;;;;;;;;;5073027;28;20474;-70
2023/09/01 08:46:53;;;;;;;55.87;2.03;;;;;;;;;;5073104;28;20489;-67
2023/09/01 08:49:21;;;;;;;56.07;2.00;;;;;;;;;;5073030;28;20447;-68
2023/09/01 08:51:49;;;;;;;56.30;2.07;;;;;;;;;;5072644;28;20443;-67
2023/09/01 08:54:17;;;;;;;56.27;2.00;;;;;;;;;;5073028;28;20471;-67
2023/09/01 08:56:45;;;;;;;55.97;2.10;;;;;;;;;;5072688;28;20443;-67
2023/09/01 08:59:12;;;;;;;56.20;1.90;;;;;;;;;;5072942;28;20800;-67
2023/09/01 09:01:39;;;;;;;56.23;2.03;;;;;;;;;;5072526;28;20501;-68
2023/09/01 09:04:06;;;;;;;55.93;2.03;;;;;;;;;;5072553;28;20440;-67
2023/09/01 09:06:34;;;;;;;56.70;2.73;;;;;;;;;;5072511;28;20962;-68
2023/09/01 09:09:11;;;;;;;55.93;2.10;;;;;;;;;;5072755;28;20815;-67
2023/09/01 09:11:39;;;;;;;57.37;3.07;;;;;;;;;;5072445;28;20451;-69
2023/09/01 09:14:07;;;;;;;56.37;2.17;;;;;;;;;;5072521;28;20513;-67
2023/09/01 09:16:35;;;;;;;56.07;2.00;;;;;;;;;;5072284;28;20504;-68
2023/09/01 09:19:10;;;;;;;56.67;2.30;;;;;;;;;;5072194;28;20448;-67
2023/09/01 09:21:37;;;;;;;56.40;2.23;;;;;;;;;;5072226;28;20486;-67
2023/09/01 09:24:05;;;;;;;56.30;1.90;;;;;;;;;;5072239;28;20469;-68
2023/09/01 09:26:33;;;;;;;56.30;2.20;;;;;;;;;;5072193;28;20447;-68
2023/09/01 09:29:06;;;;;;;56.23;2.00;;;;;;;;;;5072232;28;20470;-67
2023/09/01 09:31:36;;;;;;;56.10;2.10;;;;;;;;;;5071970;28;20815;-68
2023/09/01 09:34:13;;;;;;;55.97;2.10;;;;;;;;;;5072014;28;20447;-67
2023/09/01 09:36:40;;;;;;;56.27;1.90;;;;;;;;;;5071983;28;20455;-66
2023/09/01 09:39:07;;;;;;;56.40;2.13;;;;;;;;;;5072081;28;20443;-67
2023/09/01 09:41:46;;;;;;;56.27;2.00;;;;;;;;;;5071829;28;20513;-69
2023/09/01 09:44:14;;;;;;;56.70;2.23;;;;;;;;;;5071726;28;20478;-67
2023/09/01 09:46:41;;;;;;;56.10;1.90;;;;;;;;;;5071934;28;20470;-67
2023/09/01 09:49:08;;;;;;;55.87;1.90;;;;;;;;;;5072052;28;20443;-67
2023/09/01 09:51:36;;;;;;;55.97;2.00;;;;;;;;;;5071708;28;20559;-68
2023/09/01 09:54:04;;;;;;;56.40;1.90;;;;;;;;;;5071573;28;20440;-66
2023/09/01 09:56:33;;;;;;;55.87;1.73;;;;;;;;;;5071468;28;20811;-66
2023/09/01 09:59:03;;;;;;;56.10;1.80;;;;;;;;;;5071755;28;20453;-68
2023/09/01 10:01:31;;;;;;;55.80;1.90;;;;;;;;;;5071477;28;20482;-67
2023/09/01 10:03:59;;;;;;;56.30;2.10;;;;;;;;;;5071309;28;20443;-67
2023/09/01 10:06:26;;;;;;;55.67;1.70;;;;;;;;;;5071457;28;20445;-69
2023/09/01 10:08:53;;;;;;;56.20;2.00;;;;;;;;;;5071458;28;20535;-68
2023/09/01 10:11:22;;;;;;;56.20;1.90;;;;;;;;;;5071221;28;20446;-69
2023/09/01 10:13:50;;;;;;;56.27;2.50;;;;;;;;;;5071378;28;20825;-67
2023/09/01 10:16:19;;;;;;;57.07;2.20;;;;;;;;;;5071470;28;20459;-68
2023/09/01 10:18:47;;;;;;;55.97;2.20;;;;;;;;;;5071460;28;20443;-68
2023/09/01 10:21:14;;;;;;;56.07;1.90;;;;;;;;;;5071125;28;20483;-70
2023/09/01 10:23:42;;;;;;;56.30;2.10;;;;;;;;;;5070966;28;20534;-68
2023/09/01 10:26:16;;;;;;;56.37;2.03;;;;;;;;;;5071272;28;20467;-68
2023/09/01 10:28:56;;;;;;;56.20;2.00;;;;;;;;;;5071406;28;20447;-68
2023/09/01 10:31:25;;;;;;;56.30;2.00;;;;;;;;;;5071409;28;20448;-68
2023/09/01 10:34:12;;;;;;;56.27;1.90;;;;;;;;;;5070904;28;20444;-68
2023/09/01 10:36:40;;;;;;;56.13;1.90;;;;;;;;;;5071091;28;20462;-68
2023/09/01 10:39:25;;;;;;;55.97;1.90;;;;;;;;;;5071219;28;20455;-68
2023/09/01 10:41:52;;;;;;;56.27;2.10;;;;;;;;;;5070758;28;20487;-68
2023/09/01 10:44:21;;;;;;;56.40;2.13;;;;;;;;;;5070975;28;20464;-68
2023/09/01 10:46:50;;;;;;;56.27;2.00;;;;;;;;;;5070749;28;20447;-68
2023/09/01 10:49:17;;;;;;;56.20;2.10;;;;;;;;;;5071009;28;20456;-68
2023/09/01 10:51:46;;;;;;;55.93;1.90;;;;;;;;;;5070400;28;20440;-66
2023/09/01 10:54:31;;;;;;;55.93;1.90;;;;;;;;;;5070995;28;20451;-67
2023/09/01 10:56:59;;;;;;;56.37;2.17;;;;;;;;;;5070646;28;20763;-67
2023/09/01 10:59:29;;;;;;;56.10;2.10;;;;;;;;;;5071079;28;20453;-67
2023/09/01 11:01:58;;;;;;;56.10;2.00;;;;;;;;;;5070836;28;20483;-67
2023/09/01 11:04:31;;;;;;;56.20;2.00;;;;;;;;;;5070839;28;20565;-67
2023/09/01 11:07:03;;;;;;;56.17;2.40;;;;;;;;;;5070706;28;20533;-67
2023/09/01 11:09:45;;;;;;;57.60;3.40;;;;;;;;;;5070634;28;20547;-68
2023/09/01 11:12:12;;;;;;;55.97;1.97;;;;;;;;;;5070760;28;20450;-69
2023/09/01 11:14:40;;;;;;;56.30;2.10;;;;;;;;;;5070722;28;20455;-67
2023/09/01 11:17:08;;;;;;;55.93;1.83;;;;;;;;;;5070596;28;20819;-67
2023/09/01 11:19:48;;;;;;;56.07;2.17;;;;;;;;;;5070711;28;20796;-67
2023/09/01 11:22:15;;;;;;;55.97;1.90;;;;;;;;;;5070260;28;20475;-68
2023/09/01 11:24:46;;;;;;;55.80;1.80;;;;;;;;;;5070918;28;20470;-68
2023/09/01 11:27:14;;;;;;;56.40;2.10;;;;;;;;;;5070707;28;20452;-68
2023/09/01 11:29:41;;;;;;;56.50;2.00;;;;;;;;;;5070596;28;20439;-67
2023/09/01 11:32:09;;;;;;;55.87;1.80;;;;;;;;;;5070141;28;20451;-68
2023/09/01 11:34:38;;;;;;;56.53;2.07;;;;;;;;;;5070311;28;21013;-67
2023/09/01 11:37:05;;;;;;;56.33;2.07;;;;;;;;;;5070271;28;20462;-67
2023/09/01 11:39:32;;;;;;;55.67;1.90;;;;;;;;;;5070628;28;20439;-68
2023/09/01 11:42:01;;;;;;;56.37;1.90;;;;;;;;;;5070345;28;20483;-67
2023/09/01 11:44:28;;;;;;;56.30;2.23;;;;;;;;;;5070262;28;20562;-68
2023/09/01 11:46:55;;;;;;;55.73;1.53;;;;;;;;;;5070165;28;20443;-68
2023/09/01 11:49:24;;;;;;;55.77;1.60;;;;;;;;;;5070667;28;20816;-65
2023/09/01 11:51:51;;;;;;;55.83;1.53;;;;;;;;;;5070154;28;20943;-68
2023/09/01 11:54:18;;;;;;;55.90;1.50;;;;;;;;;;5070458;28;20468;-67
2023/09/01 11:56:45;;;;;;;56.37;2.23;;;;;;;;;;5070083;28;20449;-67
2023/09/01 11:59:21;;;;;;;55.70;1.60;;;;;;;;;;5070168;28;20563;-67
2023/09/01 12:01:48;;;;;;;55.97;1.50;;;;;;;;;;5070258;28;20486;-68
2023/09/01 12:04:15;;;;;;;58.57;2.23;;;;;;;;;;5072431;28;20477;-69
2023/09/01 12:06:46;;;;;;;55.97;2.07;;;;;;;;;;5073604;28;20443;-68
2023/09/01 12:09:14;;;;;;;55.57;1.60;;;;;;;;;;5073775;28;20534;-68
2023/09/01 12:11:53;;;;;;;56.30;2.23;;;;;;;;;;5073284;28;20957;-67
2023/09/01 12:14:24;;;;;;;55.80;1.60;;;;;;;;;;5073766;28;20829;-67
2023/09/01 12:16:53;;;;;;;56.20;1.90;;;;;;;;;;5073631;28;20770;-68
2023/09/01 12:19:22;;;;;;;55.63;1.60;;;;;;;;;;5073385;28;20451;-68
2023/09/01 12:21:50;;;;;;;55.77;1.90;;;;;;;;;;5073256;28;20861;-70
2023/09/01 12:24:18;;;;;;;56.00;1.90;;;;;;;;;;5073250;28;20474;-70
2023/09/01 12:26:45;;;;;;;55.80;1.80;;;;;;;;;;5073343;28;20534;-69
2023/09/01 12:29:12;;;;;;;55.57;1.60;;;;;;;;;;5073466;28;20443;-69
2023/09/01 12:31:39;;;;;;;55.70;1.70;;;;;;;;;;5073062;28;20510;-69
2023/09/01 12:34:06;;;;;;;55.40;1.50;;;;;;;;;;5073202;28;20448;-69
2023/09/01 12:36:33;;;;;;;55.40;1.80;;;;;;;;;;5073019;28;20969;-68
2023/09/01 12:39:02;;;;;;;55.50;1.70;;;;;;;;;;5073517;28;20854;-68
2023/09/01 12:41:29;;;;;;;55.37;1.40;;;;;;;;;;5073219;28;20491;-68
2023/09/01 12:43:56;;;;;;;55.50;1.70;;;;;;;;;;5072779;28;20447;-70
2023/09/01 12:46:23;;;;;;;55.47;1.70;;;;;;;;;;5073058;28;20446;-68
2023/09/01 12:48:50;;;;;;;55.50;1.50;;;;;;;;;;5072906;28;20923;-70
2023/09/01 12:51:17;;;;;;;56.40;1.90;;;;;;;;;;5072909;28;20440;-68
2023/09/01 12:53:45;;;;;;;56.07;1.83;;;;;;;;;;5072592;28;20470;-70
2023/09/01 12:56:13;;;;;;;55.90;1.80;;;;;;;;;;5072850;28;20831;-69
2023/09/01 12:58:40;;;;;;;56.30;1.80;;;;;;;;;;5072911;28;20447;-69
2023/09/01 13:01:07;;;;;;;55.40;1.90;;;;;;;;;;5072648;28;20476;-69
2023/09/01 13:03:34;;;;;;;56.47;1.87;;;;;;;;;;5072541;28;20439;-72
2023/09/01 13:06:02;;;;;;;55.83;1.67;;;;;;;;;;5072374;28;20462;-69
2023/09/01 13:08:29;;;;;;;55.13;1.53;;;;;;;;;;5072863;28;20499;-71
2023/09/01 13:10:56;;;;;;;56.00;1.60;;;;;;;;;;5072437;28;20454;-69
2023/09/01 13:13:24;;;;;;;56.17;1.70;;;;;;;;;;5072355;28;20471;-70
2023/09/01 13:15:51;;;;;;;56.33;1.87;;;;;;;;;;5071740;28;20463;-70
2023/09/01 13:18:18;;;;;;;56.10;1.60;;;;;;;;;;5072448;28;20439;-69
2023/09/01 13:20:46;;;;;;;55.97;1.60;;;;;;;;;;5072237;28;20443;-69
2023/09/01 13:23:13;;;;;;;55.90;1.67;;;;;;;;;;5072086;28;20439;-69
2023/09/01 13:25:40;;;;;;;55.90;1.60;;;;;;;;;;5072273;28;20911;-69
2023/09/01 13:28:07;;;;;;;56.03;1.60;;;;;;;;;;5072426;28;20443;-70
2023/09/01 13:30:37;;;;;;;56.13;1.60;;;;;;;;;;5072595;28;20439;-70
2023/09/01 13:33:05;;;;;;;56.50;2.23;;;;;;;;;;5071770;28;20446;-70
2023/09/01 13:35:32;;;;;;;57.23;2.00;;;;;;;;;;5071793;28;20464;-70
2023/09/01 13:37:59;;;;;;;59.03;2.17;;;;;;;;;;5071922;28;20550;-68
2023/09/01 13:40:27;;;;;;;56.47;1.70;;;;;;;;;;5072069;28;20447;-69
2023/09/01 13:42:54;;;;;;;55.67;1.50;;;;;;;;;;5071574;28;20487;-68
2023/09/01 13:45:21;;;;;;;56.07;1.80;;;;;;;;;;5071837;28;20836;-69
2023/09/01 13:47:50;;;;;;;56.20;1.60;;;;;;;;;;5071750;28;20443;-69
2023/09/01 13:50:17;;;;;;;56.07;1.90;;;;;;;;;;5072048;28;20446;-70
2023/09/01 13:52:44;;;;;;;55.83;1.57;;;;;;;;;;5071530;28;20436;-68
2023/09/01 13:55:11;;;;;;;55.93;1.90;;;;;;;;;;5071731;28;20467;-69
2023/09/01 13:57:38;;;;;;;56.00;1.60;;;;;;;;;;5071601;28;20943;-70
2023/09/01 14:00:07;;;;;;;55.77;1.50;;;;;;;;;;5071619;28;20479;-69
2023/09/01 14:02:34;;;;;;;55.67;1.60;;;;;;;;;;5071081;28;20479;-71
2023/09/01 14:05:03;;;;;;;55.53;1.57;;;;;;;;;;5071572;28;20843;-70
2023/09/01 14:07:30;;;;;;;55.60;1.70;;;;;;;;;;5071511;28;20451;-69
2023/09/01 14:09:57;;;;;;;55.53;1.57;;;;;;;;;;5071508;28;20439;-70
2023/09/01 14:12:24;;;;;;;55.57;1.80;;;;;;;;;;5071066;28;20527;-69
2023/09/01 14:14:51;;;;;;;55.67;1.50;;;;;;;;;;5071177;28;20467;-71
2023/09/01 14:17:18;;;;;;;55.70;1.50;;;;;;;;;;5071496;28;20951;-69
2023/09/01 14:19:45;;;;;;;55.53;1.40;;;;;;;;;;5071668;28;20444;-69
2023/09/01 14:22:14;;;;;;;55.90;1.50;;;;;;;;;;5071195;28;20483;-68
2023/09/01 14:24:41;;;;;;;55.90;1.63;;;;;;;;;;5071522;28;20557;-70
2023/09/01 14:27:08;;;;;;;56.70;1.80;;;;;;;;;;5070374;28;20527;-69
2023/09/01 14:29:36;;;;;;;55.80;1.80;;;;;;;;;;5071041;28;20444;-70
2023/09/01 14:32:04;;;;;;;55.43;1.80;;;;;;;;;;5071179;28;20554;-69
2023/09/01 14:34:32;;;;;;;55.80;1.60;;;;;;;;;;5070939;28;20478;-70
2023/09/01 14:36:59;;;;;;;55.80;2.37;;;;;;;;;;5070874;28;20455;-69